createdAt,value
2023-04-12T00:01:46.029Z,95163.59
2023-04-12T00:04:47.627Z,95157.84
2023-04-12T00:08:04.502Z,95152.28
2023-04-12T00:11:06.433Z,95146.19
2023-04-12T00:14:10.113Z,95143.69
2023-04-12T00:17:11.768Z,95142.94
2023-04-12T00:20:13.922Z,95125.28
2023-04-12T00:23:19.288Z,95126.41
2023-04-12T00:26:21.157Z,95121.50
2023-04-12T00:29:24.772Z,95109.66
2023-04-12T00:32:27.717Z,95101.34
2023-04-12T00:35:29.612Z,95098.34
2023-04-12T00:38:33.998Z,95098.88
2023-04-12T00:41:37.812Z,95092.81
2023-04-12T00:44:39.340Z,95095.44
2023-04-12T00:47:42.974Z,95092.81
2023-04-12T00:50:44.555Z,95087.97
2023-04-12T00:53:47.674Z,95090.63
2023-04-12T00:56:49.282Z,95081.63
2023-04-12T00:59:51.545Z,95068.22
2023-04-12T01:02:54.743Z,95068.94
2023-04-12T01:06:03.624Z,95066.78
2023-04-12T01:09:11.439Z,95063.06
2023-04-12T01:12:19.064Z,95058.94
2023-04-12T01:15:21.603Z,95061.94
2023-04-12T01:18:26.052Z,95056.78
2023-04-12T01:21:31.546Z,95054.94
2023-04-12T01:24:41.633Z,95055.69
2023-04-12T01:27:46.532Z,95047.53
2023-04-12T01:30:50.959Z,95041.59
2023-04-12T01:33:54.397Z,95034.03
2023-04-12T01:36:57.440Z,95027.91
2023-04-12T01:40:01.389Z,95021.34
2023-04-12T01:43:08.939Z,95029.66
2023-04-12T01:46:10.744Z,95025.28
2023-04-12T01:49:12.390Z,95017.66
2023-04-12T01:52:19.923Z,95002.44
2023-04-12T01:55:21.869Z,95002.53
2023-04-12T01:58:25.260Z,95005.88
2023-04-12T02:01:31.605Z,95008.22
2023-04-12T02:04:34.498Z,94999.88
2023-04-12T02:07:36.796Z,95004.53
2023-04-12T02:10:38.570Z,95003.09
2023-04-12T02:13:41.540Z,95000.44
2023-04-12T02:16:44.668Z,94998.56
2023-04-12T02:19:46.298Z,95002.53
2023-04-12T02:22:48.461Z,94991.16
2023-04-12T02:25:55.628Z,94984.72
2023-04-12T02:28:58.498Z,94989.66
2023-04-12T02:32:02.560Z,94992.81
2023-04-12T02:35:04.403Z,94980.91
2023-04-12T02:38:06.722Z,94969.84
2023-04-12T02:41:08.303Z,94980.75
2023-04-12T02:44:11.247Z,94979.59
2023-04-12T02:47:13.185Z,94974.78
2023-04-12T02:50:15.988Z,94970.66
2023-04-12T02:53:17.553Z,94960.53
2023-04-12T02:56:19.274Z,94965.69
2023-04-12T02:59:25.063Z,94964.75
2023-04-12T03:02:27.778Z,94961.09
2023-04-12T03:05:29.463Z,94952.81
2023-04-12T03:08:31.102Z,94951.94
2023-04-12T03:11:35.852Z,94950.25
2023-04-12T03:14:38.763Z,94946.13
2023-04-12T03:17:45.232Z,94940.28
2023-04-12T03:20:47.866Z,94936.50
2023-04-12T03:23:49.593Z,94928.69
2023-04-12T03:26:51.192Z,94927.91
2023-04-12T03:29:54.250Z,94928.25
2023-04-12T03:32:58.890Z,94929.03
2023-04-12T03:36:00.746Z,94925.59
2023-04-12T03:39:02.629Z,94920.00
2023-04-12T03:42:05.274Z,94916.47
2023-04-12T03:45:10.246Z,94911.88
2023-04-12T03:48:11.949Z,94913.72
2023-04-12T03:51:16.244Z,94905.97
2023-04-12T03:54:18.008Z,94908.72
2023-04-12T03:57:19.680Z,94899.41
2023-04-12T04:00:22.872Z,94903.97
2023-04-12T04:03:25.342Z,94898.63
2023-04-12T04:06:27.182Z,94902.28
2023-04-12T04:09:29.540Z,94897.56
2023-04-12T04:12:31.158Z,94894.69
2023-04-12T04:15:34.301Z,94890.38
2023-04-12T04:18:35.985Z,94894.16
2023-04-12T04:21:39.423Z,94894.88
2023-04-12T04:24:42.446Z,94893.50
2023-04-12T04:27:44.286Z,94892.97
2023-04-12T04:30:47.152Z,94895.63
2023-04-12T04:33:48.743Z,94892.34
2023-04-12T04:36:51.763Z,94903.03
2023-04-12T04:39:53.362Z,94893.03
2023-04-12T04:42:59.782Z,94887.47
2023-04-12T04:46:03.178Z,94886.31
2023-04-12T04:49:05.101Z,94886.69
2023-04-12T04:52:08.271Z,94898.53
2023-04-12T04:55:11.408Z,94894.16
2023-04-12T04:58:13.312Z,94896.28
2023-04-12T05:01:16.281Z,94897.50
2023-04-12T05:04:18.334Z,94893.78
2023-04-12T05:07:20.098Z,94899.19
2023-04-12T05:10:21.686Z,94893.53
2023-04-12T05:13:23.802Z,94900.38
2023-04-12T05:16:26.997Z,94888.75
2023-04-12T05:19:29.163Z,94888.84
2023-04-12T05:22:31.482Z,94890.09
2023-04-12T05:25:33.085Z,94889.75
2023-04-12T05:28:34.908Z,94894.63
2023-04-12T05:31:38.453Z,94889.28
2023-04-12T05:34:40.216Z,94882.53
2023-04-12T05:37:41.813Z,94884.91
2023-04-12T05:40:43.870Z,94889.13
2023-04-12T05:43:45.710Z,94877.88
2023-04-12T05:46:48.935Z,94886.69
2023-04-12T05:49:50.452Z,94875.22
2023-04-12T05:52:52.010Z,94872.78
2023-04-12T05:55:53.730Z,94873.91
2023-04-12T05:58:55.831Z,94865.31
2023-04-12T06:01:59.080Z,94854.31
2023-04-12T06:05:00.811Z,94854.16
2023-04-12T06:08:02.779Z,94846.19
2023-04-12T06:11:05.408Z,94842.81
2023-04-12T06:14:07.084Z,94851.28
2023-04-12T06:17:10.603Z,94848.41
2023-04-12T06:20:12.551Z,94850.06
2023-04-12T06:23:14.089Z,94838.28
2023-04-12T06:26:18.414Z,94833.78
2023-04-12T06:29:20.571Z,94832.38
2023-04-12T06:32:23.954Z,94832.50
2023-04-12T06:35:26.381Z,94833.28
2023-04-12T06:38:27.944Z,94825.31
2023-04-12T06:41:31.124Z,94828.88
2023-04-12T06:44:32.986Z,94820.88
2023-04-12T06:47:39.028Z,94817.13
2023-04-12T06:50:42.920Z,94816.81
2023-04-12T06:53:46.785Z,94803.06
2023-04-12T06:56:48.482Z,94801.19
2023-04-12T06:59:53.143Z,94789.78
2023-04-12T07:02:56.258Z,94792.91
2023-04-12T07:05:58.073Z,94794.50
2023-04-12T07:09:00.010Z,94792.28
2023-04-12T07:12:02.194Z,94788.13
2023-04-12T07:15:04.043Z,94775.63
2023-04-12T07:18:07.044Z,94782.09
2023-04-12T07:21:08.650Z,94781.84
2023-04-12T07:24:13.039Z,94774.97
2023-04-12T07:27:14.558Z,94765.47
2023-04-12T07:30:16.233Z,94762.06
2023-04-12T07:33:20.079Z,94753.28
2023-04-12T07:36:27.715Z,94744.97
2023-04-12T07:39:29.259Z,94741.88
2023-04-12T07:42:31.463Z,94746.13
2023-04-12T07:45:33.779Z,94730.50
2023-04-12T07:48:36.794Z,94720.25
2023-04-12T07:51:42.061Z,94726.84
2023-04-12T07:54:43.540Z,94724.59
2023-04-12T07:57:45.084Z,94720.38
2023-04-12T08:00:47.117Z,94728.84
2023-04-12T08:03:52.772Z,94731.53
2023-04-12T08:06:55.149Z,94726.63
2023-04-12T08:09:56.799Z,94731.66
2023-04-12T08:12:58.901Z,94729.75
2023-04-12T08:16:01.676Z,94723.63
2023-04-12T08:19:07.692Z,94717.16
2023-04-12T08:22:10.103Z,94714.13
2023-04-12T08:25:14.389Z,94715.69
2023-04-12T08:28:16.222Z,94709.66
2023-04-12T08:31:18.899Z,94704.31
2023-04-12T08:34:22.237Z,94705.91
2023-04-12T08:37:23.977Z,94709.00
2023-04-12T08:40:29.553Z,94702.53
2023-04-12T08:43:32.417Z,94691.06
2023-04-12T08:46:35.630Z,94686.09
2023-04-12T08:49:38.884Z,94685.00
2023-04-12T08:52:40.920Z,94678.09
2023-04-12T08:55:43.985Z,94688.09
2023-04-12T08:58:46.495Z,94687.75
2023-04-12T09:01:48.694Z,94686.22
2023-04-12T09:04:52.870Z,94680.09
2023-04-12T09:07:54.685Z,94678.19
2023-04-12T09:10:57.516Z,94667.88
2023-04-12T09:14:01.896Z,94672.88
2023-04-12T09:17:04.851Z,94675.94
2023-04-12T09:20:22.248Z,94672.13
2023-04-12T09:23:23.845Z,94665.19
2023-04-12T09:26:28.768Z,94664.06
2023-04-12T09:29:30.520Z,94664.06
2023-04-12T09:32:32.149Z,94664.06
2023-04-12T09:35:35.438Z,94650.25
2023-04-12T09:38:37.750Z,94642.56
2023-04-12T09:41:39.294Z,94645.19
2023-04-12T09:44:40.845Z,94637.13
2023-04-12T09:47:42.552Z,94647.09
2023-04-12T09:50:47.946Z,94636.31
2023-04-12T09:53:50.790Z,94633.97
2023-04-12T09:56:54.009Z,94623.56
2023-04-12T10:00:00.194Z,94629.69
2023-04-12T10:03:04.572Z,94622.75
2023-04-12T10:06:08.416Z,94613.50
2023-04-12T10:09:10.977Z,94612.72
2023-04-12T10:12:13.025Z,94611.97
2023-04-12T10:15:15.132Z,94610.41
2023-04-12T10:18:18.071Z,94606.56
2023-04-12T10:21:24.353Z,94611.56
2023-04-12T10:24:27.450Z,94606.53
2023-04-12T10:27:30.036Z,94603.91
2023-04-12T10:30:32.244Z,94598.84
2023-04-12T10:33:33.953Z,94598.47
2023-04-12T10:36:53.835Z,94595.00
2023-04-12T10:39:55.483Z,94588.03
2023-04-12T10:43:16.107Z,94595.69
2023-04-12T10:46:36.459Z,94590.31
2023-04-12T10:49:38.663Z,94597.94
2023-04-12T10:52:41.650Z,94591.84
2023-04-12T10:55:43.824Z,94595.38
2023-04-12T10:59:01.504Z,94598.03
2023-04-12T11:02:13.076Z,94596.09
2023-04-12T11:05:16.484Z,94590.00
2023-04-12T11:08:24.245Z,94588.50
2023-04-12T11:11:29.122Z,94585.00
2023-04-12T11:14:36.675Z,94585.75
2023-04-12T11:17:38.652Z,94572.31
2023-04-12T11:20:40.406Z,94546.88
2023-04-12T11:23:47.839Z,94559.59
2023-04-12T11:26:51.408Z,94547.66
2023-04-12T11:29:54.127Z,94542.66
2023-04-12T11:32:55.718Z,94523.75
2023-04-12T11:35:57.307Z,94522.97
2023-04-12T11:39:00.510Z,94514.81
2023-04-12T11:42:02.339Z,94504.34
2023-04-12T11:45:13.376Z,94492.00
2023-04-12T11:48:18.899Z,94486.53
2023-04-12T11:51:21.514Z,94466.47
2023-04-12T11:54:28.033Z,94446.72
2023-04-12T11:57:29.689Z,94441.44
2023-04-12T12:00:31.883Z,94453.34
2023-04-12T12:03:33.611Z,94455.38
2023-04-12T12:06:35.599Z,94440.03
2023-04-12T12:09:41.261Z,94434.50
2023-04-12T12:12:43.254Z,94440.59
2023-04-12T12:15:45.387Z,94445.53
2023-04-12T12:18:52.852Z,94451.31
2023-04-12T12:22:06.193Z,94445.78
2023-04-12T12:25:11.354Z,94448.03
2023-04-12T12:28:13.501Z,94437.88
2023-04-12T12:31:18.507Z,94441.97
2023-04-12T12:34:20.508Z,94441.16
2023-04-12T12:37:24.021Z,94441.06
2023-04-12T12:40:30.771Z,94430.47
2023-04-12T12:43:34.085Z,94424.50
2023-04-12T12:49:40.572Z,94415.00
2023-04-12T12:52:42.123Z,94422.19
2023-04-12T12:55:45.144Z,94408.41
2023-04-12T12:58:46.872Z,94401.72
2023-04-12T13:01:49.608Z,94384.94
2023-04-12T13:04:53.592Z,94377.28
2023-04-12T13:07:55.290Z,94378.47
2023-04-12T13:10:58.479Z,94388.69
2023-04-12T13:14:00.443Z,94374.34
2023-04-12T13:17:02.442Z,94372.88
2023-04-12T13:20:05.365Z,94361.88
2023-04-12T13:23:07.338Z,94363.84
2023-04-12T13:26:12.312Z,94359.00
2023-04-12T13:29:13.862Z,94365.16
2023-04-12T13:32:15.489Z,94351.66
2023-04-12T13:35:17.014Z,94338.16
2023-04-12T13:38:19.030Z,94327.41
2023-04-12T13:41:25.333Z,94336.03
2023-04-12T13:44:29.194Z,94337.13
2023-04-12T13:47:32.885Z,94337.44
2023-04-12T13:50:35.710Z,94337.13
2023-04-12T13:53:37.525Z,94333.19
2023-04-12T13:56:42.636Z,94335.72
2023-04-12T13:59:44.190Z,94344.59
2023-04-12T14:02:45.772Z,94342.38
2023-04-12T14:05:47.408Z,94344.66
2023-04-12T14:08:48.966Z,94349.59
2023-04-12T14:11:52.343Z,94345.00
2023-04-12T14:14:53.985Z,94340.72
2023-04-12T14:17:55.858Z,94338.00
2023-04-12T14:20:58.709Z,94333.72
2023-04-12T14:24:00.277Z,94329.47
2023-04-12T14:27:03.425Z,94334.88
2023-04-12T14:30:18.958Z,94328.94
2023-04-12T14:33:20.767Z,94325.78
2023-04-12T14:36:23.433Z,94332.69
2023-04-12T14:39:25.004Z,94321.88
2023-04-12T14:42:30.593Z,94318.34
2023-04-12T14:45:32.442Z,94315.00
2023-04-12T14:48:36.329Z,94309.31
2023-04-12T14:51:38.650Z,94306.53
2023-04-12T14:54:40.193Z,94312.63
2023-04-12T14:57:45.689Z,94303.94
2023-04-12T15:00:48.421Z,94303.28
2023-04-12T15:03:51.025Z,94308.53
2023-04-12T15:06:52.646Z,94309.22
2023-04-12T15:09:54.401Z,94299.44
2023-04-12T15:12:57.356Z,94300.53
2023-04-12T15:15:58.960Z,94303.31
2023-04-12T15:19:06.024Z,94292.84
2023-04-12T15:22:12.967Z,94290.78
2023-04-12T15:25:14.494Z,94290.59
2023-04-12T15:28:17.457Z,94294.16
2023-04-12T15:31:19.056Z,94293.63
2023-04-12T15:34:20.749Z,94290.31
2023-04-12T15:37:22.878Z,94297.00
2023-04-12T15:40:27.596Z,94289.31
2023-04-12T15:43:30.559Z,94287.13
2023-04-12T15:46:32.226Z,94279.03
2023-04-12T15:49:35.733Z,94282.81
2023-04-12T15:52:37.487Z,94270.47
2023-04-12T15:55:39.293Z,94274.84
2023-04-12T15:58:45.100Z,94276.16
2023-04-12T16:01:46.891Z,94278.09
2023-04-12T16:04:48.983Z,94271.63
2023-04-12T16:07:50.752Z,94271.59
2023-04-12T16:10:52.607Z,94268.66
2023-04-12T16:13:57.898Z,94262.56
2023-04-12T16:17:00.962Z,94255.53
2023-04-12T16:20:03.802Z,94268.09
2023-04-12T16:23:05.817Z,94261.53
2023-04-12T16:26:08.765Z,94258.69
2023-04-12T16:29:15.123Z,94252.06
2023-04-12T16:32:17.292Z,94257.34
2023-04-12T16:35:19.111Z,94255.03
2023-04-12T16:38:21.463Z,94264.53
2023-04-12T16:41:23.164Z,94250.84
2023-04-12T16:44:27.519Z,94232.22
2023-04-12T16:47:29.063Z,94236.06
2023-04-12T16:50:31.862Z,94243.94
2023-04-12T16:53:33.720Z,94237.13
2023-04-12T16:56:37.051Z,94233.06
2023-04-12T16:59:40.222Z,94225.19
2023-04-12T17:02:45.076Z,94220.78
2023-04-12T17:05:46.897Z,94223.06
2023-04-12T17:08:49.217Z,94210.19
2023-04-12T17:11:50.902Z,94213.50
2023-04-12T17:14:54.151Z,94212.16
2023-04-12T17:18:12.122Z,94216.13
2023-04-12T17:21:14.784Z,94208.13
2023-04-12T17:24:17.177Z,94206.28
2023-04-12T17:27:20.055Z,94201.97
2023-04-12T17:30:29.358Z,94198.94
2023-04-12T17:33:31.371Z,94200.53
2023-04-12T17:36:34.138Z,94194.16
2023-04-12T17:39:36.246Z,94191.63
2023-04-12T17:42:40.157Z,94190.53
2023-04-12T17:45:43.966Z,94195.59
2023-04-12T17:48:46.330Z,94203.03
2023-04-12T17:51:49.443Z,94194.22
2023-04-12T17:54:52.176Z,94200.84
2023-04-12T17:57:55.428Z,94191.94
2023-04-12T18:01:02.470Z,94200.34
2023-04-12T18:04:05.025Z,94193.44
2023-04-12T18:07:07.382Z,94192.31
2023-04-12T18:10:10.045Z,94198.56
2023-04-12T18:13:17.043Z,94198.69
2023-04-12T18:16:22.219Z,94201.13
2023-04-12T18:19:25.368Z,94195.44
2023-04-12T18:22:27.459Z,94197.09
2023-04-12T18:25:30.164Z,94189.38
2023-04-12T18:28:32.302Z,94175.19
2023-04-12T18:31:38.974Z,94181.75
2023-04-12T18:34:44.365Z,94175.63
2023-04-12T18:37:46.772Z,94189.66
2023-04-12T18:40:51.032Z,94200.94
2023-04-12T18:43:55.192Z,94202.22
2023-04-12T18:47:03.521Z,94194.81
2023-04-12T18:50:06.425Z,94197.16
2023-04-12T18:53:10.901Z,94189.31
2023-04-12T18:56:14.161Z,94198.50
2023-04-12T18:59:21.018Z,94203.00
2023-04-12T19:02:33.697Z,94206.94
2023-04-12T19:05:38.186Z,94196.69
2023-04-12T19:08:42.537Z,94197.59
2023-04-12T19:11:45.774Z,94185.06
2023-04-12T19:14:49.925Z,94195.25
2023-04-12T19:17:58.324Z,94195.25
2023-04-12T19:21:01.726Z,94182.00
2023-04-12T19:24:04.607Z,94175.81
2023-04-12T19:27:07.334Z,94175.53
2023-04-12T19:30:10.484Z,94178.16
2023-04-12T19:33:16.357Z,94165.84
2023-04-12T19:36:18.674Z,94174.50
2023-04-12T19:39:23.265Z,94172.97
2023-04-12T19:42:25.872Z,94181.19
2023-04-12T19:45:28.509Z,94176.06
2023-04-12T19:48:33.555Z,94180.38
2023-04-12T19:51:36.237Z,94170.28
2023-04-12T19:54:39.527Z,94171.25
2023-04-12T19:57:42.284Z,94172.53
2023-04-12T20:00:45.307Z,94172.53
2023-04-12T20:03:51.739Z,94170.63
2023-04-12T20:06:54.522Z,94173.94
2023-04-12T20:09:56.935Z,94164.09
2023-04-12T20:12:59.685Z,94181.81
2023-04-12T20:16:02.722Z,94176.44
2023-04-12T20:19:06.298Z,94182.25
2023-04-12T20:22:09.238Z,94174.34
2023-04-12T20:25:13.138Z,94173.28
2023-04-12T20:28:15.845Z,94167.28
2023-04-12T20:31:19.079Z,94173.09
2023-04-12T20:34:22.589Z,94172.56
2023-04-12T20:37:24.990Z,94164.13
2023-04-12T20:40:27.812Z,94173.56
2023-04-12T20:43:37.464Z,94172.44
2023-04-12T20:46:39.594Z,94177.75
2023-04-12T20:49:43.038Z,94183.50
2023-04-12T20:52:44.844Z,94193.19
2023-04-12T20:55:46.814Z,94192.16
2023-04-12T20:58:48.551Z,94191.81
2023-04-12T21:01:51.154Z,94199.75
2023-04-12T21:04:54.558Z,94197.75
2023-04-12T21:07:56.158Z,94201.44
2023-04-12T21:10:57.711Z,94241.44
2023-04-12T21:13:59.266Z,94254.66
2023-04-12T21:17:00.863Z,94251.44
2023-04-12T21:20:04.131Z,94264.72
2023-04-12T21:23:07.299Z,94255.50
2023-04-12T21:26:09.045Z,94256.56
2023-04-12T21:29:12.898Z,94269.63
2023-04-12T21:32:14.418Z,94281.44
2023-04-12T21:35:19.825Z,94292.56
2023-04-12T21:38:21.517Z,94284.03
2023-04-12T21:41:23.249Z,94289.88
2023-04-12T21:44:24.967Z,94304.53
2023-04-12T21:47:29.448Z,94306.06
2023-04-12T21:50:34.429Z,94306.47
2023-04-12T21:53:38.722Z,94308.13
2023-04-12T21:56:40.696Z,94301.28
2023-04-12T21:59:42.896Z,94322.09
2023-04-12T22:02:44.956Z,94329.16
2023-04-12T22:06:00.776Z,94323.44
2023-04-12T22:09:07.073Z,94333.09
2023-04-12T22:12:08.882Z,94317.34
2023-04-12T22:15:10.987Z,94311.56
2023-04-12T22:18:12.475Z,94319.75
2023-04-12T22:21:15.608Z,94323.25
2023-04-12T22:24:17.179Z,94315.19
2023-04-12T22:27:18.675Z,94326.03
2023-04-12T22:30:22.606Z,94323.72
2023-04-12T22:33:24.148Z,94327.63
2023-04-12T22:36:29.325Z,94327.59
2023-04-12T22:39:31.163Z,94329.59
2023-04-12T22:42:32.696Z,94328.50
2023-04-12T22:45:34.671Z,94337.00
2023-04-12T22:48:36.216Z,94331.94
2023-04-12T22:51:39.127Z,94327.41
2023-04-12T22:54:41.081Z,94346.28
2023-04-12T22:57:42.678Z,94348.63
2023-04-12T23:00:45.026Z,94345.59
2023-04-12T23:03:47.215Z,94352.91
2023-04-12T23:06:53.005Z,94357.13
2023-04-12T23:09:54.484Z,94351.78
2023-04-12T23:12:56.006Z,94351.84
2023-04-12T23:16:00.575Z,94347.63
2023-04-12T23:19:02.165Z,94344.94
2023-04-12T23:22:07.199Z,94344.97
2023-04-12T23:25:08.948Z,94344.56
2023-04-12T23:28:11.528Z,94345.28
2023-04-12T23:31:13.146Z,94346.06
2023-04-12T23:34:14.828Z,94340.66
2023-04-12T23:37:18.440Z,94341.09
2023-04-12T23:40:19.958Z,94341.84
2023-04-12T23:43:24.665Z,94341.88
2023-04-12T23:46:26.637Z,94342.97
2023-04-12T23:49:28.280Z,94336.03
2023-04-12T23:52:31.179Z,94336.06
2023-04-12T23:55:32.736Z,94339.22
2023-04-12T23:58:34.465Z,94343.84
